Time;durP1;ratioP1;P1;durP2;ratioP2;P2;SDS_P1;SDS_P2;PMS_P1;PMS_P2;Temp;Humidity;BMP_temperature;BMP_pressure;BME280_temperature;BME280_humidity;BME280_pressure;Samples;Min_cycle;Max_cycle;Signal;HPM_P1;HPM_P2
2023/01/01 00:01:50;;;;;;;;;;;5.80;99.90;;;;;;5031496;28;19963;-76
2023/01/01 00:04:15;;;;;;;;;;;5.90;99.90;;;;;;5032388;28;19909;-76
2023/01/01 00:06:42;;;;;;;;;;;5.90;99.90;;;;;;5032879;28;19995;-75
2023/01/01 00:11:51;;;;;;;;;;;5.70;99.90;;;;;;5033200;28;19912;-76
2023/01/01 00:14:17;;;;;;;;;;;5.70;99.90;;;;;;5032679;28;19909;-76
2023/01/01 00:16:42;;;;;;;;;;;5.60;99.90;;;;;;5032305;28;19909;-77
2023/01/01 00:19:08;;;;;;;;;;;5.60;99.90;;;;;;5033734;28;19908;-77
2023/01/01 00:21:33;;;;;;;;;;;5.50;99.90;;;;;;5034079;28;20381;-76
2023/01/01 00:23:59;;;;;;;;;;;5.50;99.90;;;;;;5034510;28;19913;-77
2023/01/01 00:26:24;;;;;;;;;;;5.50;99.90;;;;;;5035507;28;19917;-76
2023/01/01 00:28:50;;;;;;;;;;;5.50;99.90;;;;;;5035874;28;19905;-76
2023/01/01 00:31:17;;;;;;;;;;;5.60;99.90;;;;;;5034773;28;19905;-77
2023/01/01 00:33:43;;;;;;;;;;;5.50;99.90;;;;;;5035229;28;19909;-76
2023/01/01 00:36:09;;;;;;;;;;;5.50;99.90;;;;;;5032926;28;19909;-76
2023/01/01 00:38:35;;;;;;;;;;;5.50;99.90;;;;;;5032018;28;19928;-77
2023/01/01 00:41:01;;;;;;;;;;;5.50;99.90;;;;;;5033008;28;20369;-77
2023/01/01 00:43:26;;;;;;;;;;;5.50;99.90;;;;;;5031443;28;20366;-77
2023/01/01 00:45:52;;;;;;;;;;;5.50;99.90;;;;;;5032604;28;20281;-77
2023/01/01 00:48:18;;;;;;;;;;;5.50;99.90;;;;;;5031369;28;20223;-76
2023/01/01 00:50:44;;;;;;;;;;;5.50;99.90;;;;;;5032672;28;20351;-77
2023/01/01 00:53:10;;;;;;;;;;;5.40;99.90;;;;;;5031131;28;20007;-77
2023/01/01 00:55:35;;;;;;;;;;;5.50;99.90;;;;;;5031193;28;20004;-77
2023/01/01 00:58:01;;;;;;;;;;;5.60;99.90;;;;;;5031275;28;19909;-77
2023/01/01 01:00:26;;;;;;;;;;;5.60;99.90;;;;;;5032600;28;20039;-77
2023/01/01 01:02:52;;;;;;;;;;;5.60;99.90;;;;;;5031518;28;19916;-77
2023/01/01 01:05:17;;;;;;;;;;;5.60;99.90;;;;;;5031130;28;19947;-77
2023/01/01 01:07:43;;;;;;;;;;;5.50;99.90;;;;;;5032343;28;20031;-77
2023/01/01 01:10:08;;;;;;;;;;;5.50;99.90;;;;;;5030573;28;19928;-77
2023/01/01 01:12:34;;;;;;;;;;;5.40;99.90;;;;;;5031216;28;19913;-77
2023/01/01 01:14:59;;;;;;;;;;;5.40;99.90;;;;;;5031201;28;20385;-77
2023/01/01 01:17:25;;;;;;;;;;;5.50;99.90;;;;;;5031046;28;20028;-77
2023/01/01 01:19:51;;;;;;;;;;;5.50;99.90;;;;;;5031053;28;19916;-76
2023/01/01 01:22:16;;;;;;;;;;;5.40;99.90;;;;;;5032487;28;19996;-77
2023/01/01 01:24:42;;;;;;;;;;;5.40;99.90;;;;;;5031319;28;19991;-77
2023/01/01 01:27:07;;;;;;;;;;;5.40;99.90;;;;;;5031074;28;19928;-77
2023/01/01 01:29:33;;;;;;;;;;;5.40;99.90;;;;;;5032204;28;19913;-76
2023/01/01 01:31:58;;;;;;;;;;;5.40;99.90;;;;;;5030981;28;19912;-77
2023/01/01 01:34:24;;;;;;;;;;;5.30;99.90;;;;;;5031257;28;19916;-77
2023/01/01 01:36:51;;;;;;;;;;;5.30;99.90;;;;;;5032377;28;20671;-76
2023/01/01 01:39:18;;;;;;;;;;;5.40;99.90;;;;;;5032462;28;19904;-76
2023/01/01 01:41:43;;;;;;;;;;;5.40;99.90;;;;;;5031219;28;20282;-77
2023/01/01 01:44:28;;;;;;;;;;;5.30;99.90;;;;;;5031265;28;19916;-76
2023/01/01 01:46:54;;;;;;;;;;;5.30;99.90;;;;;;5031932;28;19921;-77
2023/01/01 01:49:21;;;;;;;;;;;5.30;99.90;;;;;;5032380;28;19920;-77
2023/01/01 01:51:47;;;;;;;;;;;5.20;99.90;;;;;;5032312;28;19959;-77
2023/01/01 01:54:15;;;;;;;;;;;5.20;99.90;;;;;;5031129;28;19936;-76
2023/01/01 01:56:40;;;;;;;;;;;5.10;99.90;;;;;;5030888;28;19916;-77
2023/01/01 01:59:06;;;;;;;;;;;5.00;99.90;;;;;;5030973;28;19909;-77
2023/01/01 02:01:32;;;;;;;;;;;5.00;99.90;;;;;;5032672;28;20400;-76
2023/01/01 02:03:58;;;;;;;;;;;4.90;99.90;;;;;;5031126;28;20304;-77
2023/01/01 02:06:28;;;;;;;;;;;4.90;99.90;;;;;;5031218;28;19919;-77
2023/01/01 02:08:55;;;;;;;;;;;4.90;99.90;;;;;;5031094;28;19940;-75
2023/01/01 02:11:20;;;;;;;;;;;4.90;99.90;;;;;;5032588;28;19908;-77
2023/01/01 02:13:46;;;;;;;;;;;4.90;99.90;;;;;;5030809;28;20404;-77
2023/01/01 02:16:16;;;;;;;;;;;4.80;99.90;;;;;;5031614;28;19995;-77
2023/01/01 02:18:41;;;;;;;;;;;4.80;99.90;;;;;;5032493;28;19996;-77
2023/01/01 02:21:11;;;;;;;;;;;4.80;99.90;;;;;;5032516;28;19988;-77
2023/01/01 02:23:37;;;;;;;;;;;4.80;99.90;;;;;;5031477;28;19932;-77
2023/01/01 02:26:03;;;;;;;;;;;4.80;99.90;;;;;;5031407;28;20017;-77
2023/01/01 02:28:46;;;;;;;;;;;4.80;99.90;;;;;;5032789;28;19984;-77
2023/01/01 02:31:14;;;;;;;;;;;4.70;99.90;;;;;;5031492;28;19924;-77
2023/01/01 02:33:40;;;;;;;;;;;4.80;99.90;;;;;;5032780;28;19913;-77
2023/01/01 02:36:07;;;;;;;;;;;4.80;99.90;;;;;;5032725;28;19908;-77
2023/01/01 02:38:36;;;;;;;;;;;4.70;99.90;;;;;;5031738;28;19909;-77
2023/01/01 02:41:07;;;;;;;;;;;4.60;99.90;;;;;;5033179;28;19909;-77
2023/01/01 02:43:33;;;;;;;;;;;4.60;99.90;;;;;;5031143;28;19909;-77
2023/01/01 02:45:58;;;;;;;;;;;4.50;99.90;;;;;;5031567;28;20392;-77
2023/01/01 02:48:38;;;;;;;;;;;4.50;99.90;;;;;;5033292;28;19913;-77
2023/01/01 02:51:08;;;;;;;;;;;4.40;99.90;;;;;;5033550;28;20278;-77
2023/01/01 02:53:36;;;;;;;;;;;4.40;99.90;;;;;;5032375;28;19909;-77
2023/01/01 02:56:04;;;;;;;;;;;4.40;99.90;;;;;;5032144;28;19956;-77
2023/01/01 03:01:40;;;;;;;;;;;4.30;99.90;;;;;;5031129;28;19945;-77
2023/01/01 03:04:05;;;;;;;;;;;4.30;99.90;;;;;;5029135;28;20004;-77
2023/01/01 03:06:54;;;;;;;;;;;4.30;99.90;;;;;;5029127;28;19917;-77
2023/01/01 03:09:23;;;;;;;;;;;4.30;99.90;;;;;;5026218;28;20458;-77
2023/01/01 03:11:49;;;;;;;;;;;4.40;99.90;;;;;;5029123;28;20612;-76
2023/01/01 03:14:14;;;;;;;;;;;4.40;99.90;;;;;;5030753;28;20000;-77
2023/01/01 03:16:49;;;;;;;;;;;4.40;99.90;;;;;;5029304;28;19905;-77
2023/01/01 03:19:44;;;;;;;;;;;4.50;99.90;;;;;;5029169;28;19915;-77
2023/01/01 03:22:12;;;;;;;;;;;4.50;99.90;;;;;;5024191;28;19920;-76
2023/01/01 03:24:47;;;;;;;;;;;4.60;99.90;;;;;;5030836;28;19905;-76
2023/01/01 03:27:12;;;;;;;;;;;4.60;99.90;;;;;;5028441;28;20023;-77
2023/01/01 03:29:39;;;;;;;;;;;4.70;99.90;;;;;;5028709;28;20007;-77
2023/01/01 03:32:06;;;;;;;;;;;4.70;99.90;;;;;;5028805;28;19935;-77
2023/01/01 03:34:34;;;;;;;;;;;4.80;99.90;;;;;;5028366;28;20301;-77
2023/01/01 03:37:03;;;;;;;;;;;4.80;99.90;;;;;;5030173;28;19956;-77
2023/01/01 03:39:32;;;;;;;;;;;4.80;99.90;;;;;;5030075;28;19909;-77
2023/01/01 03:42:07;;;;;;;;;;;4.80;99.90;;;;;;5030191;28;20325;-77
2023/01/01 03:44:34;;;;;;;;;;;4.80;99.90;;;;;;5030318;28;19956;-78
2023/01/01 03:47:00;;;;;;;;;;;4.90;99.90;;;;;;5030275;28;19917;-77
2023/01/01 03:49:26;;;;;;;;;;;4.90;99.90;;;;;;5028683;28;19912;-77
2023/01/01 03:52:11;;;;;;;;;;;4.80;99.90;;;;;;5028630;28;19944;-77
2023/01/01 03:54:46;;;;;;;;;;;4.90;99.90;;;;;;5029950;28;19935;-77
2023/01/01 03:57:21;;;;;;;;;;;4.90;99.90;;;;;;5030274;28;19904;-77
2023/01/01 03:59:57;;;;;;;;;;;4.80;99.90;;;;;;5029931;28;19909;-77
2023/01/01 04:02:26;;;;;;;;;;;4.70;99.90;;;;;;5030637;28;19947;-76
2023/01/01 04:04:52;;;;;;;;;;;4.60;99.90;;;;;;5029085;28;19905;-76
2023/01/01 04:07:18;;;;;;;;;;;4.60;99.90;;;;;;5029844;28;19963;-76
2023/01/01 04:09:47;;;;;;;;;;;4.50;99.90;;;;;;5029177;28;19905;-77
2023/01/01 04:12:14;;;;;;;;;;;4.50;99.90;;;;;;5029768;28;19909;-77
2023/01/01 04:14:42;;;;;;;;;;;4.50;99.90;;;;;;5030470;28;20165;-76
2023/01/01 04:17:09;;;;;;;;;;;4.40;99.90;;;;;;5031180;28;19916;-77
2023/01/01 04:19:34;;;;;;;;;;;4.30;99.90;;;;;;5029371;28;19913;-77
2023/01/01 04:22:00;;;;;;;;;;;4.30;99.90;;;;;;5030977;28;20258;-77
2023/01/01 04:24:25;;;;;;;;;;;4.20;99.90;;;;;;5031287;28;20010;-77
2023/01/01 04:26:51;;;;;;;;;;;4.20;99.90;;;;;;5030746;28;19917;-77
2023/01/01 04:29:17;;;;;;;;;;;4.10;99.90;;;;;;5030109;28;19909;-77
2023/01/01 04:31:43;;;;;;;;;;;4.10;99.90;;;;;;5031603;28;20400;-76
2023/01/01 04:34:09;;;;;;;;;;;4.10;99.90;;;;;;5029553;28;19916;-76
2023/01/01 04:36:34;;;;;;;;;;;4.10;99.90;;;;;;5029961;28;19917;-77
2023/01/01 04:39:00;;;;;;;;;;;4.00;99.90;;;;;;5030082;28;19912;-77
2023/01/01 04:41:25;;;;;;;;;;;4.00;99.90;;;;;;5031028;28;20380;-77
2023/01/01 04:43:51;;;;;;;;;;;3.90;99.90;;;;;;5029627;28;19905;-77
2023/01/01 04:46:17;;;;;;;;;;;3.90;99.90;;;;;;5031694;28;19940;-77
2023/01/01 04:48:43;;;;;;;;;;;3.90;99.90;;;;;;5033484;28;19905;-77
2023/01/01 04:51:09;;;;;;;;;;;3.90;99.90;;;;;;5034298;28;19909;-77
2023/01/01 04:53:35;;;;;;;;;;;4.00;99.90;;;;;;5035348;28;19915;-77
2023/01/01 04:56:11;;;;;;;;;;;4.10;99.90;;;;;;5033428;28;19991;-76
2023/01/01 04:58:38;;;;;;;;;;;4.10;99.90;;;;;;5034074;28;20441;-76
2023/01/01 05:01:04;;;;;;;;;;;4.10;99.90;;;;;;5033740;28;20428;-76
2023/01/01 05:03:30;;;;;;;;;;;4.10;99.90;;;;;;5033634;28;19913;-77
2023/01/01 05:06:06;;;;;;;;;;;4.10;99.90;;;;;;5033753;28;20350;-77
2023/01/01 05:08:32;;;;;;;;;;;4.00;99.90;;;;;;5035283;28;19923;-76
2023/01/01 05:11:02;;;;;;;;;;;4.00;99.90;;;;;;5033155;28;19909;-76
2023/01/01 05:13:27;;;;;;;;;;;4.00;99.90;;;;;;5035228;28;20403;-77
2023/01/01 05:15:53;;;;;;;;;;;3.90;99.90;;;;;;5035968;28;19991;-77
2023/01/01 05:18:18;;;;;;;;;;;3.90;99.90;;;;;;5034665;28;19953;-77
2023/01/01 05:20:44;;;;;;;;;;;3.80;99.90;;;;;;5031746;28;19912;-77
2023/01/01 05:23:09;;;;;;;;;;;3.90;99.90;;;;;;5031482;28;19909;-77
2023/01/01 05:25:35;;;;;;;;;;;3.80;99.90;;;;;;5032322;28;19924;-77
2023/01/01 05:28:00;;;;;;;;;;;3.90;99.90;;;;;;5030986;28;19917;-75
2023/01/01 05:30:26;;;;;;;;;;;3.90;99.90;;;;;;5031062;28;19905;-77
2023/01/01 05:32:52;;;;;;;;;;;3.90;99.90;;;;;;5032737;28;19909;-76
2023/01/01 05:35:17;;;;;;;;;;;3.90;99.90;;;;;;5033245;28;20160;-77
2023/01/01 05:37:43;;;;;;;;;;;4.00;99.90;;;;;;5032850;28;19913;-76
2023/01/01 05:40:09;;;;;;;;;;;4.00;99.90;;;;;;5032733;28;19908;-77
2023/01/01 05:42:35;;;;;;;;;;;4.10;99.90;;;;;;5032635;28;20062;-77
2023/01/01 05:45:01;;;;;;;;;;;4.10;99.90;;;;;;5031261;28;19913;-77
2023/01/01 05:47:27;;;;;;;;;;;4.00;99.90;;;;;;5031497;28;19913;-76
2023/01/01 05:49:52;;;;;;;;;;;4.00;99.90;;;;;;5031018;28;19909;-76
2023/01/01 05:52:18;;;;;;;;;;;4.10;99.90;;;;;;5031040;28;20385;-77
2023/01/01 05:54:43;;;;;;;;;;;4.10;99.90;;;;;;5031211;28;20293;-77
2023/01/01 05:57:09;;;;;;;;;;;4.00;99.90;;;;;;5032070;28;19909;-77
2023/01/01 05:59:34;;;;;;;;;;;4.00;99.90;;;;;;5031113;28;20362;-76
2023/01/01 06:02:00;;;;;;;;;;;4.00;99.90;;;;;;5030718;28;20453;-76
2023/01/01 06:04:25;;;;;;;;;;;4.00;99.90;;;;;;5031126;28;20421;-77
2023/01/01 06:06:51;;;;;;;;;;;3.90;99.90;;;;;;5031059;28;19916;-77
2023/01/01 06:09:16;;;;;;;;;;;3.90;99.90;;;;;;5032640;28;19909;-77
2023/01/01 06:11:42;;;;;;;;;;;3.90;99.90;;;;;;5030750;28;20004;-77
2023/01/01 06:14:07;;;;;;;;;;;3.90;99.90;;;;;;5030981;28;19952;-76
2023/01/01 06:16:33;;;;;;;;;;;3.80;99.90;;;;;;5030654;28;19974;-77
2023/01/01 06:18:58;;;;;;;;;;;3.80;99.90;;;;;;5032405;28;19905;-77
2023/01/01 06:21:25;;;;;;;;;;;3.70;99.90;;;;;;5031263;28;19905;-77
2023/01/01 06:23:51;;;;;;;;;;;3.70;99.90;;;;;;5031279;28;20270;-77
2023/01/01 06:26:25;;;;;;;;;;;3.70;99.90;;;;;;5030937;28;19945;-77
2023/01/01 06:28:50;;;;;;;;;;;3.60;99.90;;;;;;5030522;28;20318;-76
2023/01/01 06:31:17;;;;;;;;;;;3.70;99.90;;;;;;5032547;28;19909;-76
2023/01/01 06:33:42;;;;;;;;;;;3.70;99.90;;;;;;5031148;28;19963;-77
2023/01/01 06:36:09;;;;;;;;;;;3.60;99.90;;;;;;5031581;28;20369;-77
2023/01/01 06:38:36;;;;;;;;;;;3.60;99.90;;;;;;5031072;28;19921;-77
2023/01/01 06:41:03;;;;;;;;;;;3.60;99.90;;;;;;5032661;28;19916;-76
2023/01/01 06:43:29;;;;;;;;;;;3.60;99.90;;;;;;5031077;28;19931;-77
2023/01/01 06:46:04;;;;;;;;;;;3.70;99.90;;;;;;5031018;28;19909;-77
2023/01/01 06:48:30;;;;;;;;;;;3.70;99.90;;;;;;5032241;28;19943;-77
2023/01/01 06:50:56;;;;;;;;;;;3.90;99.90;;;;;;5032070;28;19921;-76
2023/01/01 06:53:25;;;;;;;;;;;4.00;99.90;;;;;;5032419;28;19955;-76
2023/01/01 06:55:51;;;;;;;;;;;4.20;99.90;;;;;;5032225;28;19933;-76
2023/01/01 06:58:17;;;;;;;;;;;4.20;99.90;;;;;;5032640;28;19905;-76
2023/01/01 07:00:42;;;;;;;;;;;4.20;99.90;;;;;;5032293;28;19908;-77
2023/01/01 07:03:11;;;;;;;;;;;4.20;99.90;;;;;;5031199;28;20417;-77
2023/01/01 07:05:36;;;;;;;;;;;4.20;99.90;;;;;;5032736;28;19905;-77
2023/01/01 07:08:02;;;;;;;;;;;4.20;99.90;;;;;;5030619;28;19920;-77
2023/01/01 07:10:28;;;;;;;;;;;4.40;99.90;;;;;;5031033;28;19909;-77
2023/01/01 07:12:53;;;;;;;;;;;4.50;99.90;;;;;;5031114;28;19909;-77
2023/01/01 07:15:19;;;;;;;;;;;4.60;99.90;;;;;;5032318;28;19929;-77
2023/01/01 07:17:44;;;;;;;;;;;4.70;99.90;;;;;;5031964;28;19928;-77
2023/01/01 07:20:10;;;;;;;;;;;4.90;99.90;;;;;;5031981;28;19909;-77
2023/01/01 07:22:37;;;;;;;;;;;5.00;99.90;;;;;;5030298;28;19958;-77
2023/01/01 07:25:02;;;;;;;;;;;5.20;99.90;;;;;;5030676;28;20377;-77
2023/01/01 07:27:28;;;;;;;;;;;5.30;99.90;;;;;;5031679;28;19921;-77
2023/01/01 07:29:55;;;;;;;;;;;5.50;99.90;;;;;;5030513;28;19925;-77
2023/01/01 07:32:20;;;;;;;;;;;5.70;99.90;;;;;;5031089;28;19920;-77
2023/01/01 07:34:46;;;;;;;;;;;5.90;99.90;;;;;;5031518;28;19909;-78
2023/01/01 07:37:11;;;;;;;;;;;6.10;99.90;;;;;;5030793;28;19949;-77
2023/01/01 07:39:37;;;;;;;;;;;6.20;99.90;;;;;;5033214;28;19912;-77
2023/01/01 07:42:02;;;;;;;;;;;6.30;99.90;;;;;;5030806;28;20431;-76
2023/01/01 07:44:28;;;;;;;;;;;6.50;99.90;;;;;;5029225;28;20442;-77
2023/01/01 07:47:00;;;;;;;;;;;6.60;99.90;;;;;;5028769;28;19913;-76
2023/01/01 07:49:26;;;;;;;;;;;6.80;99.90;;;;;;5030136;28;19913;-77
2023/01/01 07:51:51;;;;;;;;;;;7.00;99.90;;;;;;5030162;28;19955;-77
2023/01/01 07:54:17;;;;;;;;;;;7.30;99.90;;;;;;5030283;28;19908;-77
2023/01/01 07:56:42;;;;;;;;;;;7.60;99.90;;;;;;5030081;28;19913;-77
2023/01/01 07:59:08;;;;;;;;;;;7.90;99.90;;;;;;5028480;28;19928;-77
2023/01/01 08:01:34;;;;;;;;;;;8.30;99.90;;;;;;5028432;28;19913;-76
2023/01/01 08:04:00;;;;;;;;;;;8.50;99.90;;;;;;5027961;28;20000;-77
2023/01/01 08:06:25;;;;;;;;;;;8.80;99.90;;;;;;5029395;28;20004;-77
2023/01/01 08:08:51;;;;;;;;;;;9.10;99.90;;;;;;5028477;28;19909;-77
2023/01/01 08:11:16;;;;;;;;;;;9.40;99.90;;;;;;5027820;28;20275;-77
2023/01/01 08:13:42;;;;;;;;;;;9.70;99.90;;;;;;5029340;28;19979;-77
2023/01/01 08:16:07;;;;;;;;;;;10.00;99.90;;;;;;5028970;28;19913;-77
2023/01/01 08:18:33;;;;;;;;;;;10.40;99.90;;;;;;5027448;28;19905;-77
2023/01/01 08:20:59;;;;;;;;;;;10.70;99.90;;;;;;5031665;28;19941;-78
2023/01/01 08:23:24;;;;;;;;;;;10.90;99.90;;;;;;5031431;28;19953;-77
2023/01/01 08:25:50;;;;;;;;;;;11.10;99.90;;;;;;5031025;28;19966;-77
2023/01/01 08:28:15;;;;;;;;;;;11.30;99.90;;;;;;5032877;28;19923;-78
2023/01/01 08:30:41;;;;;;;;;;;11.40;99.90;;;;;;5034101;28;19912;-76
2023/01/01 08:33:06;;;;;;;;;;;11.40;99.90;;;;;;5031139;28;19905;-77
2023/01/01 08:35:33;;;;;;;;;;;11.40;99.90;;;;;;5031087;28;19958;-77
2023/01/01 08:37:58;;;;;;;;;;;11.40;99.90;;;;;;5032152;28;19955;-78
2023/01/01 08:40:24;;;;;;;;;;;11.50;99.90;;;;;;5031166;28;19905;-77
2023/01/01 08:42:49;;;;;;;;;;;11.60;99.90;;;;;;5031094;28;20384;-77
2023/01/01 08:45:15;;;;;;;;;;;11.60;99.90;;;;;;5032380;28;19912;-77
2023/01/01 08:47:42;;;;;;;;;;;11.50;99.90;;;;;;5032240;28;19916;-78
2023/01/01 08:50:07;;;;;;;;;;;11.50;99.90;;;;;;5030851;28;20087;-77
2023/01/01 08:52:33;;;;;;;;;;;11.40;99.90;;;;;;5032259;28;19984;-77
2023/01/01 08:54:59;;;;;;;;;;;11.30;99.90;;;;;;5030785;28;19908;-76
2023/01/01 08:57:28;;;;;;;;;;;11.30;99.90;;;;;;5031092;28;19948;-76
2023/01/01 08:59:53;;;;;;;;;;;11.20;99.90;;;;;;5030789;28;20293;-77
2023/01/01 09:02:19;;;;;;;;;;;11.20;99.90;;;;;;5030669;28;19925;-76
2023/01/01 09:04:44;;;;;;;;;;;11.20;99.90;;;;;;5030619;28;19917;-76
2023/01/01 09:07:10;;;;;;;;;;;11.10;99.90;;;;;;5030789;28;19928;-76
2023/01/01 09:09:35;;;;;;;;;;;11.00;99.90;;;;;;5030539;28;19905;-76
2023/01/01 09:12:04;;;;;;;;;;;11.00;99.90;;;;;;5031689;28;19905;-77
2023/01/01 09:14:31;;;;;;;;;;;10.90;99.90;;;;;;5030471;28;19919;-75
2023/01/01 09:16:56;;;;;;;;;;;10.90;99.90;;;;;;5031524;28;19916;-76
2023/01/01 09:19:22;;;;;;;;;;;10.90;99.90;;;;;;5030155;28;20297;-76
2023/01/01 09:21:47;;;;;;;;;;;10.80;99.90;;;;;;5031687;28;19909;-76
2023/01/01 09:24:13;;;;;;;;;;;10.80;99.90;;;;;;5032081;28;20365;-76
2023/01/01 09:26:38;;;;;;;;;;;10.70;99.90;;;;;;5030965;28;19921;-76
2023/01/01 09:29:04;;;;;;;;;;;10.60;99.90;;;;;;5030780;28;19917;-76
2023/01/01 09:31:30;;;;;;;;;;;10.50;99.90;;;;;;5030137;28;19912;-76
2023/01/01 09:33:55;;;;;;;;;;;10.40;99.90;;;;;;5030938;28;19906;-76
2023/01/01 09:36:21;;;;;;;;;;;10.40;99.90;;;;;;5031857;28;19959;-76
2023/01/01 09:38:50;;;;;;;;;;;10.50;99.90;;;;;;5031721;28;19941;-76
2023/01/01 09:41:24;;;;;;;;;;;10.60;99.90;;;;;;5031229;28;20428;-76
2023/01/01 09:44:02;;;;;;;;;;;10.60;99.90;;;;;;5031105;28;19916;-76
2023/01/01 09:46:28;;;;;;;;;;;10.60;99.90;;;;;;5030758;28;19905;-76
2023/01/01 09:49:00;;;;;;;;;;;10.60;99.90;;;;;;5031327;28;20092;-76
2023/01/01 09:51:27;;;;;;;;;;;10.70;99.90;;;;;;5031468;28;20345;-76
2023/01/01 09:53:56;;;;;;;;;;;10.60;99.90;;;;;;5030312;28;19959;-76
2023/01/01 09:56:24;;;;;;;;;;;10.70;99.90;;;;;;5031878;28;19905;-76
2023/01/01 09:58:50;;;;;;;;;;;10.70;99.90;;;;;;5032435;28;19987;-76
2023/01/01 10:01:15;;;;;;;;;;;10.70;99.90;;;;;;5033416;28;20385;-76
2023/01/01 10:03:41;;;;;;;;;;;10.70;99.90;;;;;;5031405;28;19931;-76
2023/01/01 10:06:06;;;;;;;;;;;10.70;99.90;;;;;;5029877;28;19905;-76
2023/01/01 10:08:58;;;;;;;;;;;10.70;99.90;;;;;;5030792;28;19967;-76
2023/01/01 10:11:30;;;;;;;;;;;10.70;99.90;;;;;;5022429;28;19909;-77
2023/01/01 10:13:56;;;;;;;;;;;10.70;99.90;;;;;;5029735;28;19909;-76
2023/01/01 10:16:31;;;;;;;;;;;10.70;99.90;;;;;;5029949;28;20000;-76
2023/01/01 10:18:59;;;;;;;;;;;10.80;99.90;;;;;;5029834;28;20354;-76
2023/01/01 10:21:24;;;;;;;;;;;10.80;99.90;;;;;;5031041;28;20356;-76
2023/01/01 10:23:55;;;;;;;;;;;10.70;99.90;;;;;;5029548;28;19920;-76
2023/01/01 10:26:23;;;;;;;;;;;10.70;99.90;;;;;;5030495;28;19928;-76
2023/01/01 10:29:02;;;;;;;;;;;10.70;99.90;;;;;;5029146;28;20374;-76
2023/01/01 10:31:31;;;;;;;;;;;10.60;99.90;;;;;;5029461;28;19909;-76
2023/01/01 10:33:57;;;;;;;;;;;10.60;99.90;;;;;;5030799;28;19905;-76
2023/01/01 10:36:23;;;;;;;;;;;10.60;99.90;;;;;;5030537;28;19952;-76
2023/01/01 10:38:49;;;;;;;;;;;10.60;99.90;;;;;;5029579;28;19912;-76
2023/01/01 10:41:16;;;;;;;;;;;10.60;99.90;;;;;;5029573;28;20389;-76
2023/01/01 10:43:41;;;;;;;;;;;10.70;99.90;;;;;;5029851;28;20366;-76
2023/01/01 10:46:10;;;;;;;;;;;10.70;99.90;;;;;;5029280;28;19909;-76
2023/01/01 10:48:36;;;;;;;;;;;10.70;99.90;;;;;;5029280;28;19933;-76
2023/01/01 10:51:03;;;;;;;;;;;10.70;99.90;;;;;;5029454;28;20666;-76
2023/01/01 10:53:31;;;;;;;;;;;10.80;99.90;;;;;;5030463;28;19913;-76
2023/01/01 10:56:04;;;;;;;;;;;10.70;99.90;;;;;;5030427;28;19905;-77
2023/01/01 10:58:39;;;;;;;;;;;10.80;99.90;;;;;;5030258;28;20370;-76
2023/01/01 11:01:06;;;;;;;;;;;10.80;99.90;;;;;;5028963;28;19916;-75
2023/01/01 11:03:32;;;;;;;;;;;11.00;99.90;;;;;;5028956;28;19932;-76
2023/01/01 11:06:01;;;;;;;;;;;11.10;99.90;;;;;;5028906;28;19947;-77
2023/01/01 11:08:28;;;;;;;;;;;11.10;99.90;;;;;;5028669;28;20006;-76
2023/01/01 11:10:54;;;;;;;;;;;11.20;99.90;;;;;;5030186;28;20362;-76
2023/01/01 11:13:20;;;;;;;;;;;11.20;99.90;;;;;;5029766;28;19912;-76
2023/01/01 11:15:46;;;;;;;;;;;11.20;99.90;;;;;;5028312;28;20393;-76
2023/01/01 11:18:19;;;;;;;;;;;11.30;99.90;;;;;;5028555;28;20521;-76
2023/01/01 11:20:50;;;;;;;;;;;11.30;99.90;;;;;;5029905;28;19909;-76
2023/01/01 11:23:35;;;;;;;;;;;11.30;99.90;;;;;;5030117;28;19909;-76
2023/01/01 11:26:16;;;;;;;;;;;11.40;99.90;;;;;;5028294;28;19925;-76
2023/01/01 11:28:42;;;;;;;;;;;11.40;99.90;;;;;;5029825;28;19987;-76
2023/01/01 11:31:13;;;;;;;;;;;11.40;99.90;;;;;;5028309;28;19909;-77
2023/01/01 11:33:44;;;;;;;;;;;11.50;99.90;;;;;;5028223;28;19906;-76
2023/01/01 11:36:10;;;;;;;;;;;11.50;99.90;;;;;;5028267;28;19989;-76
2023/01/01 11:38:36;;;;;;;;;;;11.50;99.90;;;;;;5029555;28;19945;-76
2023/01/01 11:41:05;;;;;;;;;;;11.50;99.90;;;;;;5028078;28;20003;-76
2023/01/01 11:43:37;;;;;;;;;;;11.50;99.90;;;;;;5028130;28;19920;-76
2023/01/01 11:46:05;;;;;;;;;;;11.50;99.90;;;;;;5027735;28;19909;-76
2023/01/01 11:48:35;;;;;;;;;;;11.60;99.90;;;;;;5027717;28;20090;-76
2023/01/01 11:51:05;;;;;;;;;;;11.60;99.90;;;;;;5029211;28;19920;-77
2023/01/01 11:53:31;;;;;;;;;;;11.70;99.90;;;;;;5026210;28;19916;-76
2023/01/01 11:56:09;;;;;;;;;;;11.70;99.90;;;;;;5030722;28;20416;-76
2023/01/01 11:58:35;;;;;;;;;;;11.80;99.90;;;;;;5033344;28;19913;-77
2023/01/01 12:01:09;;;;;;;;;;;11.80;99.90;;;;;;5032073;28;19913;-76
2023/01/01 12:03:41;;;;;;;;;;;11.80;99.90;;;;;;5031921;28;19913;-76
2023/01/01 12:06:20;;;;;;;;;;;11.90;99.90;;;;;;5031638;28;19963;-76
2023/01/01 12:08:51;;;;;;;;;;;11.90;99.90;;;;;;5033059;28;19917;-76
2023/01/01 12:11:32;;;;;;;;;;;11.90;99.90;;;;;;5031854;28;19909;-77
2023/01/01 12:14:00;;;;;;;;;;;11.90;99.90;;;;;;5031771;28;20305;-75
2023/01/01 12:16:47;;;;;;;;;;;12.00;99.90;;;;;;5031338;28;20391;-76
2023/01/01 12:19:32;;;;;;;;;;;11.90;99.90;;;;;;5031659;28;20381;-76
2023/01/01 12:21:59;;;;;;;;;;;11.80;99.90;;;;;;5027824;28;19944;-77
2023/01/01 12:24:31;;;;;;;;;;;11.80;99.90;;;;;;5032908;28;19909;-78
2023/01/01 12:26:57;;;;;;;;;;;11.80;99.90;;;;;;5032702;28;19971;-76
2023/01/01 12:29:30;;;;;;;;;;;11.80;99.90;;;;;;5031277;28;20321;-76
2023/01/01 12:32:04;;;;;;;;;;;11.80;99.90;;;;;;5032392;28;19912;-76
2023/01/01 12:34:32;;;;;;;;;;;11.70;99.90;;;;;;5031224;28;19913;-77
2023/01/01 12:37:04;;;;;;;;;;;11.70;99.90;;;;;;5032501;28;20512;-77
2023/01/01 12:39:29;;;;;;;;;;;11.70;99.90;;;;;;5032473;28;19975;-76
2023/01/01 12:42:13;;;;;;;;;;;11.70;99.90;;;;;;5032445;28;19909;-76
2023/01/01 12:44:38;;;;;;;;;;;11.60;99.90;;;;;;5031064;28;19916;-76
2023/01/01 12:47:10;;;;;;;;;;;11.60;99.90;;;;;;5032260;28;20007;-76
2023/01/01 12:49:41;;;;;;;;;;;11.60;99.90;;;;;;5030950;28;19941;-76
2023/01/01 12:52:13;;;;;;;;;;;11.60;99.90;;;;;;5030846;28;19915;-76
2023/01/01 12:54:42;;;;;;;;;;;11.50;99.90;;;;;;5030852;28;20329;-77
2023/01/01 12:57:28;;;;;;;;;;;11.50;99.90;;;;;;5032263;28;19943;-76
2023/01/01 12:59:54;;;;;;;;;;;11.50;99.90;;;;;;5031744;28;19955;-76
2023/01/01 13:02:24;;;;;;;;;;;11.60;99.90;;;;;;5030807;28;19913;-76
2023/01/01 13:04:55;;;;;;;;;;;11.50;99.90;;;;;;5032080;28;19999;-76
2023/01/01 13:07:34;;;;;;;;;;;11.60;99.90;;;;;;5030921;28;20413;-76
2023/01/01 13:10:04;;;;;;;;;;;11.60;99.90;;;;;;5031554;28;20338;-76
2023/01/01 13:12:31;;;;;;;;;;;11.50;99.90;;;;;;5031954;28;19951;-76
2023/01/01 13:14:57;;;;;;;;;;;11.60;99.90;;;;;;5031975;28;19904;-76
2023/01/01 13:17:24;;;;;;;;;;;11.50;99.90;;;;;;5031917;28;19909;-75
2023/01/01 13:20:19;;;;;;;;;;;11.60;99.90;;;;;;5030342;28;19913;-76
2023/01/01 13:22:46;;;;;;;;;;;11.50;99.90;;;;;;5025606;28;19912;-77
2023/01/01 13:25:15;;;;;;;;;;;11.50;99.90;;;;;;5030280;28;19921;-76
2023/01/01 13:27:56;;;;;;;;;;;11.50;99.90;;;;;;5030473;28;19964;-75
2023/01/01 13:30:37;;;;;;;;;;;11.50;99.90;;;;;;5030486;28;19916;-77
2023/01/01 13:33:09;;;;;;;;;;;11.50;99.90;;;;;;5030331;28;19909;-76
2023/01/01 13:35:35;;;;;;;;;;;11.40;99.90;;;;;;5031728;28;19909;-76
2023/01/01 13:38:00;;;;;;;;;;;11.40;99.90;;;;;;5030137;28;19909;-76
2023/01/01 13:40:28;;;;;;;;;;;11.40;99.90;;;;;;5030128;28;19916;-76
2023/01/01 13:43:05;;;;;;;;;;;11.40;99.90;;;;;;5031690;28;19973;-76
2023/01/01 13:45:33;;;;;;;;;;;11.40;99.90;;;;;;5030131;28;20346;-76
2023/01/01 13:48:08;;;;;;;;;;;11.40;99.90;;;;;;5030774;28;19917;-76
2023/01/01 13:50:52;;;;;;;;;;;11.40;99.90;;;;;;5030520;28;19905;-76
2023/01/01 13:53:30;;;;;;;;;;;11.40;99.90;;;;;;5030891;28;19917;-76
2023/01/01 13:56:02;;;;;;;;;;;11.40;99.90;;;;;;5030367;28;19991;-76
2023/01/01 13:58:27;;;;;;;;;;;11.50;99.90;;;;;;5030683;28;19931;-77
2023/01/01 14:00:53;;;;;;;;;;;11.60;99.90;;;;;;5030573;28;19909;-76
2023/01/01 14:03:18;;;;;;;;;;;11.70;99.90;;;;;;5030742;28;20007;-76
2023/01/01 14:05:49;;;;;;;;;;;11.70;99.90;;;;;;5030632;28;20385;-75
2023/01/01 14:08:26;;;;;;;;;;;11.60;99.90;;;;;;5031465;28;19960;-76
2023/01/01 14:10:52;;;;;;;;;;;11.50;99.90;;;;;;5030485;28;20595;-77
2023/01/01 14:13:17;;;;;;;;;;;11.40;99.90;;;;;;5031702;28;19995;-76
2023/01/01 14:15:49;;;;;;;;;;;11.30;99.90;;;;;;5030206;28;20388;-77
2023/01/01 14:18:16;;;;;;;;;;;11.20;99.90;;;;;;5030244;28;19917;-76
2023/01/01 14:20:46;;;;;;;;;;;11.00;99.90;;;;;;5032023;28;19967;-76
2023/01/01 14:23:18;;;;;;;;;;;10.80;99.90;;;;;;5031726;28;19951;-77
2023/01/01 14:25:43;;;;;;;;;;;10.70;99.90;;;;;;5031053;28;20363;-76
2023/01/01 14:28:21;;;;;;;;;;;10.60;99.90;;;;;;5032099;28;20011;-76
2023/01/01 14:30:46;;;;;;;;;;;10.50;99.90;;;;;;5030407;28;19905;-76
2023/01/01 14:33:23;;;;;;;;;;;10.40;99.90;;;;;;5033263;28;19916;-76
2023/01/01 14:35:55;;;;;;;;;;;10.30;99.90;;;;;;5032236;28;19999;-75